Time;durP1;ratioP1;P1;durP2;ratioP2;P2;SDS_P1;SDS_P2;PMS_P1;PMS_P2;Temp;Humidity;BMP_temperature;BMP_pressure;BME280_temperature;BME280_humidity;BME280_pressure;Samples;Min_cycle;Max_cycle;Signal;HPM_P1;HPM_P2
2021/12/27 00:02:24;;;;;;;17.48;9.60;;;22.80;87.70;;;;;;1818788;78;21666;-79
2021/12/27 00:04:55;;;;;;;19.67;12.58;;;22.80;87.60;;;;;;1815627;79;21692;-79
2021/12/27 00:07:26;;;;;;;17.77;11.03;;;22.90;87.90;;;;;;1818558;77;21192;-79
2021/12/27 00:09:57;;;;;;;21.30;11.75;;;22.90;87.60;;;;;;1812945;78;21579;-71
2021/12/27 00:12:28;;;;;;;25.80;17.87;;;22.90;87.20;;;;;;1817794;77;21732;-70
2021/12/27 00:14:59;;;;;;;28.47;19.10;;;22.90;87.40;;;;;;1809496;77;21679;-70
2021/12/27 00:17:30;;;;;;;19.85;12.13;;;23.00;87.80;;;;;;1809149;79;21167;-70
2021/12/27 00:20:01;;;;;;;20.32;11.03;;;23.00;87.60;;;;;;1813911;79;21234;-71
2021/12/27 00:22:32;;;;;;;16.17;9.38;;;23.00;87.30;;;;;;1795684;79;21575;-71
2021/12/27 00:25:02;;;;;;;30.95;22.02;;;23.10;87.20;;;;;;1816709;77;21139;-70
2021/12/27 00:27:33;;;;;;;18.23;12.45;;;23.10;87.00;;;;;;1820000;77;21155;-71
2021/12/27 00:30:06;;;;;;;19.70;11.15;;;23.10;87.10;;;;;;1789733;79;21243;-70
2021/12/27 00:32:37;;;;;;;16.12;10.18;;;23.10;87.10;;;;;;1817196;78;21225;-70
2021/12/27 00:35:10;;;;;;;14.55;9.53;;;23.20;87.20;;;;;;1820817;77;21155;-71
2021/12/27 00:37:41;;;;;;;21.15;11.55;;;23.30;86.80;;;;;;1785384;79;21645;-70
2021/12/27 00:40:14;;;;;;;19.98;11.20;;;23.30;86.70;;;;;;1781477;80;21134;-70
2021/12/27 00:42:45;;;;;;;19.52;11.93;;;23.30;86.70;;;;;;1784200;79;21146;-70
2021/12/27 00:45:16;;;;;;;18.48;10.88;;;23.30;86.70;;;;;;1797330;79;21229;-70
2021/12/27 00:47:48;;;;;;;16.05;11.03;;;23.30;86.50;;;;;;1753144;81;21110;-70
2021/12/27 00:50:19;;;;;;;16.05;9.88;;;23.30;86.40;;;;;;1805833;79;22410;-70
2021/12/27 00:52:50;;;;;;;18.35;9.68;;;23.40;86.70;;;;;;1804759;79;21092;-70
2021/12/27 00:55:21;;;;;;;13.48;9.28;;;23.40;86.30;;;;;;1788991;80;21189;-70
2021/12/27 00:57:53;;;;;;;18.25;9.10;;;23.40;86.10;;;;;;1813411;78;21176;-70
2021/12/27 01:00:25;;;;;;;13.90;9.08;;;23.50;85.90;;;;;;1796154;79;21219;-69
2021/12/27 01:02:58;;;;;;;15.38;8.88;;;23.50;86.70;;;;;;1751627;81;21170;-70
2021/12/27 01:05:28;;;;;;;14.05;8.75;;;23.50;85.30;;;;;;1815972;77;21155;-72
2021/12/27 01:07:59;;;;;;;14.55;7.92;;;23.60;85.20;;;;;;1816355;79;21205;-70
2021/12/27 01:18:08;;;;;;;14.20;7.75;;;23.70;84.20;;;;;;1817892;79;21616;-70
2021/12/27 01:20:39;;;;;;;14.20;8.10;;;23.90;84.10;;;;;;1817665;78;21662;-69
2021/12/27 01:23:10;;;;;;;13.62;6.97;;;23.90;84.30;;;;;;1817315;78;21125;-70
2021/12/27 01:25:41;;;;;;;7.85;5.08;;;23.90;84.00;;;;;;1761636;80;21157;-71
2021/12/27 01:28:12;;;;;;;11.57;6.22;;;24.00;83.40;;;;;;1764311;80;21885;-70
2021/12/27 01:30:47;;;;;;;10.30;5.35;;;24.00;83.00;;;;;;1789786;79;21726;-70
2021/12/27 01:33:17;;;;;;;10.95;5.62;;;24.10;82.90;;;;;;1791220;80;21677;-70
2021/12/27 01:35:49;;;;;;;11.33;5.90;;;24.10;82.70;;;;;;1826717;78;21245;-69
2021/12/27 01:38:20;;;;;;;10.35;5.65;;;24.20;82.60;;;;;;1837731;78;21527;-72
2021/12/27 01:40:53;;;;;;;15.38;7.55;;;24.20;82.20;;;;;;1823935;78;21228;-71
2021/12/27 01:43:27;;;;;;;11.70;7.10;;;24.30;81.80;;;;;;1820223;79;21240;-70
2021/12/27 01:46:01;;;;;;;10.55;6.60;;;24.30;81.80;;;;;;1836115;78;21127;-70
2021/12/27 01:48:37;;;;;;;9.73;6.00;;;24.30;81.80;;;;;;1837467;78;21091;-71
2021/12/27 01:51:09;;;;;;;11.30;6.08;;;24.30;81.70;;;;;;1837666;78;21709;-70
2021/12/27 01:53:42;;;;;;;12.47;4.67;;;24.40;81.40;;;;;;1836839;78;21135;-71
2021/12/27 01:56:14;;;;;;;10.75;4.78;;;24.40;80.80;;;;;;1829012;78;21630;-71
2021/12/27 01:58:45;;;;;;;8.30;4.28;;;24.40;80.40;;;;;;1837298;78;21127;-69
2021/12/27 02:01:16;;;;;;;10.15;5.45;;;24.50;80.30;;;;;;1827269;78;21136;-70
2021/12/27 02:03:48;;;;;;;9.88;4.90;;;24.50;80.10;;;;;;1819591;78;21169;-71
2021/12/27 02:06:20;;;;;;;8.70;5.05;;;24.50;80.30;;;;;;1837183;78;21107;-70
2021/12/27 02:08:51;;;;;;;12.95;5.60;;;24.50;80.40;;;;;;1837333;78;21068;-69
2021/12/27 02:11:22;;;;;;;10.05;4.53;;;24.60;80.20;;;;;;1822666;77;21146;-69
2021/12/27 02:13:53;;;;;;;10.40;4.40;;;24.60;80.30;;;;;;1821660;77;21594;-69
2021/12/27 02:16:25;;;;;;;7.05;3.17;;;24.60;79.80;;;;;;1837558;78;21126;-69
2021/12/27 02:18:55;;;;;;;8.88;3.58;;;24.70;78.90;;;;;;1837714;77;21086;-71
2021/12/27 02:21:26;;;;;;;7.78;3.37;;;24.70;78.60;;;;;;1831208;78;21151;-70
2021/12/27 02:23:59;;;;;;;5.67;3.45;;;24.70;78.70;;;;;;1816426;78;21148;-69
2021/12/27 02:26:30;;;;;;;12.15;4.30;;;24.80;78.80;;;;;;1817755;78;21692;-70
2021/12/27 02:29:01;;;;;;;6.62;3.50;;;24.80;78.80;;;;;;1817502;79;21107;-70
2021/12/27 02:31:39;;;;;;;7.00;3.70;;;24.80;78.40;;;;;;1827071;78;21084;-70
2021/12/27 02:34:05;;;;;;;7.83;3.33;;;24.90;78.10;;;;;;1827275;78;21130;-71
2021/12/27 02:36:36;;;;;;;11.83;4.80;;;24.90;77.50;;;;;;1772970;80;21682;-70
2021/12/27 02:39:08;;;;;;;8.63;3.98;;;24.90;77.70;;;;;;1749828;81;21267;-70
2021/12/27 02:41:38;;;;;;;8.45;4.20;;;25.00;77.60;;;;;;1754930;81;21177;-70
2021/12/27 02:44:09;;;;;;;7.80;3.55;;;25.00;76.90;;;;;;1741107;81;21258;-70
2021/12/27 02:46:41;;;;;;;7.90;4.08;;;25.00;76.70;;;;;;1759311;81;21178;-70
2021/12/27 02:49:12;;;;;;;6.00;3.98;;;25.10;76.50;;;;;;1761022;80;21175;-71
2021/12/27 02:51:42;;;;;;;9.95;4.28;;;25.00;75.90;;;;;;1790704;80;21179;-69
2021/12/27 02:54:13;;;;;;;9.50;4.03;;;25.10;76.30;;;;;;1755165;80;21106;-70
2021/12/27 02:56:45;;;;;;;7.83;4.10;;;25.10;76.30;;;;;;1767902;80;21551;-70
2021/12/27 02:59:16;;;;;;;12.18;3.83;;;25.10;76.40;;;;;;1758789;80;21680;-70
2021/12/27 03:01:47;;;;;;;7.58;3.35;;;25.10;76.40;;;;;;1797609;79;21719;-70
2021/12/27 03:04:17;;;;;;;6.53;3.37;;;25.20;76.30;;;;;;1791013;80;21234;-71
2021/12/27 03:06:49;;;;;;;14.20;3.85;;;25.20;75.90;;;;;;1769136;80;21759;-69
2021/12/27 03:09:21;;;;;;;5.45;3.37;;;25.30;75.90;;;;;;1784960;79;21200;-70
2021/12/27 03:11:53;;;;;;;5.78;2.85;;;25.30;75.30;;;;;;1784727;80;21169;-70
2021/12/27 03:14:24;;;;;;;5.45;3.25;;;25.40;74.90;;;;;;1786081;80;21145;-70
2021/12/27 03:16:55;;;;;;;7.28;3.27;;;25.50;74.70;;;;;;1787467;80;21135;-70
2021/12/27 03:19:26;;;;;;;5.80;3.45;;;25.50;74.70;;;;;;1784287;80;21228;-70
2021/12/27 03:21:57;;;;;;;7.12;3.62;;;25.50;74.50;;;;;;1783164;80;21313;-70
2021/12/27 03:24:28;;;;;;;6.08;3.27;;;25.60;74.40;;;;;;1784257;80;21111;-71
2021/12/27 03:26:59;;;;;;;7.60;3.37;;;25.60;73.80;;;;;;1784771;80;21615;-68
2021/12/27 03:29:30;;;;;;;12.75;3.47;;;25.70;73.40;;;;;;1754725;82;21630;-70
2021/12/27 03:32:02;;;;;;;4.85;2.83;;;25.80;73.60;;;;;;1752940;81;21135;-69
2021/12/27 03:34:40;;;;;;;5.15;2.85;;;25.90;73.30;;;;;;1734695;81;21138;-70
2021/12/27 03:37:05;;;;;;;4.78;3.00;;;25.90;72.40;;;;;;1827161;77;21261;-70
2021/12/27 03:39:36;;;;;;;5.87;2.83;;;26.00;72.70;;;;;;1840992;78;21806;-69
2021/12/27 03:42:07;;;;;;;9.65;3.40;;;26.00;72.60;;;;;;1846348;78;21067;-71
2021/12/27 03:44:39;;;;;;;8.33;3.55;;;26.10;72.80;;;;;;1829348;78;21728;-70
2021/12/27 03:47:10;;;;;;;7.08;3.50;;;26.20;72.70;;;;;;1779618;80;21131;-70
2021/12/27 03:49:41;;;;;;;6.78;3.50;;;26.30;72.50;;;;;;1809728;79;21197;-69
2021/12/27 03:52:12;;;;;;;6.70;3.60;;;26.30;72.30;;;;;;1807597;79;21641;-69
2021/12/27 03:54:42;;;;;;;5.85;2.95;;;26.40;71.30;;;;;;1808536;79;21158;-69
2021/12/27 03:57:15;;;;;;;9.03;3.00;;;26.60;71.50;;;;;;1805568;79;21091;-68
2021/12/27 04:02:17;;;;;;;5.70;2.83;;;26.80;69.70;;;;;;1813785;79;21161;-72
2021/12/27 04:04:48;;;;;;;6.15;3.08;;;26.90;69.50;;;;;;1815219;79;21071;-71
2021/12/27 04:07:19;;;;;;;6.25;2.60;;;27.00;68.40;;;;;;1816025;78;21128;-69
2021/12/27 04:09:49;;;;;;;5.67;2.58;;;27.10;68.60;;;;;;1813404;79;21175;-70
2021/12/27 04:12:40;;;;;;;3.75;2.30;;;27.20;68.20;;;;;;1813162;79;21697;-71
2021/12/27 04:15:12;;;;;;;3.95;2.72;;;27.30;67.60;;;;;;1805022;79;21707;-72
2021/12/27 04:17:43;;;;;;;8.35;3.17;;;27.50;67.10;;;;;;1804868;79;21175;-70
2021/12/27 04:20:14;;;;;;;4.80;2.50;;;27.60;67.10;;;;;;1806201;79;21150;-69
2021/12/27 04:22:45;;;;;;;4.35;3.00;;;27.70;66.50;;;;;;1795343;79;21227;-70
2021/12/27 04:25:17;;;;;;;4.35;2.40;;;27.80;65.80;;;;;;1806042;79;21157;-70
2021/12/27 04:27:50;;;;;;;5.08;2.77;;;27.90;65.00;;;;;;1795869;79;21189;-71
2021/12/27 04:30:21;;;;;;;5.33;3.27;;;28.00;65.30;;;;;;1789123;79;21732;-70
2021/12/27 04:32:52;;;;;;;5.78;3.25;;;28.10;65.60;;;;;;1805913;79;21200;-70
2021/12/27 04:35:23;;;;;;;7.50;3.70;;;28.10;65.00;;;;;;1795963;79;21183;-70
2021/12/27 04:37:54;;;;;;;6.22;3.33;;;28.20;65.20;;;;;;1795410;79;21287;-71
2021/12/27 04:40:27;;;;;;;4.45;3.02;;;28.30;64.20;;;;;;1795280;80;21159;-69
2021/12/27 04:43:01;;;;;;;5.67;3.35;;;28.40;64.30;;;;;;1799293;79;21201;-70
2021/12/27 04:45:32;;;;;;;6.78;3.08;;;28.40;64.30;;;;;;1799316;80;21681;-70
2021/12/27 04:48:03;;;;;;;5.85;2.60;;;28.60;63.00;;;;;;1785961;79;21159;-71
2021/12/27 04:50:34;;;;;;;5.62;3.22;;;28.70;62.90;;;;;;1798306;79;21267;-70
2021/12/27 04:53:06;;;;;;;5.67;3.10;;;28.70;62.80;;;;;;1827762;78;21144;-70
2021/12/27 04:55:37;;;;;;;3.37;1.82;;;28.80;63.30;;;;;;1791275;80;21128;-70
2021/12/27 04:58:09;;;;;;;7.87;2.35;;;28.90;61.60;;;;;;1837407;78;22908;-70
2021/12/27 05:00:41;;;;;;;3.40;2.30;;;28.90;61.50;;;;;;1838502;78;21127;-70
2021/12/27 05:03:11;;;;;;;5.20;2.17;;;29.00;60.70;;;;;;1838625;78;21226;-70
2021/12/27 05:05:45;;;;;;;4.53;2.15;;;29.00;60.70;;;;;;1838686;78;21137;-71
2021/12/27 05:08:16;;;;;;;6.05;2.50;;;29.10;60.30;;;;;;1838858;78;21137;-71
2021/12/27 05:11:06;;;;;;;5.42;1.92;;;29.10;60.90;;;;;;1791224;80;21596;-69
2021/12/27 05:13:38;;;;;;;5.95;2.45;;;29.20;60.70;;;;;;1859870;77;21149;-71
2021/12/27 05:16:09;;;;;;;5.50;3.17;;;29.30;59.90;;;;;;1862506;76;21714;-70
2021/12/27 05:18:41;;;;;;;4.10;2.15;;;29.30;59.90;;;;;;1881221;76;21842;-71
2021/12/27 05:21:12;;;;;;;3.58;1.98;;;29.50;60.00;;;;;;1862200;77;21128;-70
2021/12/27 05:23:43;;;;;;;4.05;2.02;;;29.50;59.80;;;;;;1858929;77;21120;-69
2021/12/27 05:26:15;;;;;;;6.25;2.08;;;29.60;59.30;;;;;;1856754;77;21198;-70
2021/12/27 05:28:46;;;;;;;3.47;1.90;;;29.70;59.20;;;;;;1855922;77;21182;-70
2021/12/27 05:31:17;;;;;;;3.10;1.85;;;29.70;59.30;;;;;;1867837;76;21152;-72
2021/12/27 05:33:48;;;;;;;4.92;1.95;;;29.70;58.50;;;;;;1882174;76;21258;-71
2021/12/27 05:36:19;;;;;;;4.30;1.77;;;29.80;58.50;;;;;;1848587;77;21132;-70
2021/12/27 05:38:50;;;;;;;3.70;2.33;;;29.90;59.10;;;;;;1823570;77;21189;-69
2021/12/27 05:41:21;;;;;;;6.28;3.05;;;29.90;58.90;;;;;;1832557;77;21222;-70
2021/12/27 05:43:51;;;;;;;5.50;2.25;;;29.90;58.70;;;;;;1843134;77;21144;-69
2021/12/27 05:46:23;;;;;;;5.92;2.12;;;29.90;57.90;;;;;;1854515;77;21140;-70
2021/12/27 05:48:54;;;;;;;8.63;7.22;;;30.00;57.70;;;;;;1855985;77;21113;-71
2021/12/27 05:51:24;;;;;;;4.15;2.47;;;30.00;57.70;;;;;;1849701;77;21105;-71
2021/12/27 05:53:55;;;;;;;3.15;2.17;;;30.00;57.60;;;;;;1842485;77;21132;-71
2021/12/27 05:56:26;;;;;;;3.92;1.80;;;29.90;58.20;;;;;;1840401;77;21139;-71
2021/12/27 05:58:56;;;;;;;3.17;1.82;;;30.00;58.50;;;;;;1815686;78;21339;-69
2021/12/27 06:01:27;;;;;;;4.67;1.52;;;29.90;58.40;;;;;;1833961;77;21134;-70
2021/12/27 06:03:59;;;;;;;8.23;1.98;;;29.90;57.50;;;;;;1825123;77;21171;-69
2021/12/27 06:06:30;;;;;;;3.33;2.47;;;29.90;57.20;;;;;;1827006;77;21190;-69
2021/12/27 06:09:01;;;;;;;6.30;1.75;;;30.00;57.10;;;;;;1791886;80;21203;-71
2021/12/27 06:11:32;;;;;;;5.75;1.90;;;30.00;57.20;;;;;;1798893;78;21731;-71
2021/12/27 06:14:03;;;;;;;6.33;1.87;;;30.10;57.20;;;;;;1771499;80;21130;-70
2021/12/27 06:16:34;;;;;;;3.90;1.62;;;30.10;57.60;;;;;;1847089;77;21420;-70
2021/12/27 06:19:04;;;;;;;3.12;1.80;;;;;;;;;;1846245;76;21238;-70
2021/12/27 06:21:36;;;;;;;3.70;1.98;;;30.20;56.30;;;;;;1845394;78;21164;-70
2021/12/27 06:24:07;;;;;;;7.67;2.08;;;30.30;57.40;;;;;;1842934;78;21152;-72
2021/12/27 06:26:38;;;;;;;2.45;1.22;;;30.30;56.10;;;;;;1842748;78;21589;-71
2021/12/27 06:29:09;;;;;;;8.00;1.72;;;30.30;55.70;;;;;;1862871;77;21693;-70
2021/12/27 06:31:40;;;;;;;5.33;1.30;;;30.30;56.10;;;;;;1813162;79;21216;-69
2021/12/27 06:34:11;;;;;;;5.17;1.30;;;30.40;55.90;;;;;;1847337;77;21151;-73
2021/12/27 06:36:43;;;;;;;3.50;1.40;;;30.40;56.10;;;;;;1842888;76;21124;-70
2021/12/27 06:39:14;;;;;;;2.45;1.40;;;30.30;56.00;;;;;;1836063;77;21123;-71
2021/12/27 06:41:47;;;;;;;3.62;1.42;;;30.30;56.20;;;;;;1837806;77;21167;-70
2021/12/27 06:44:18;;;;;;;3.67;1.70;;;30.30;56.30;;;;;;1842898;77;21099;-71
2021/12/27 06:46:48;;;;;;;3.37;1.50;;;30.20;56.50;;;;;;1841954;77;21121;-71
2021/12/27 06:49:20;;;;;;;2.35;1.37;;;30.20;56.90;;;;;;1841064;77;21174;-70
2021/12/27 06:51:50;;;;;;;3.62;1.57;;;30.20;56.50;;;;;;1840263;77;21112;-71
2021/12/27 06:54:21;;;;;;;3.12;1.52;;;30.20;56.90;;;;;;1835865;77;21572;-71
2021/12/27 06:56:54;;;;;;;5.28;1.60;;;30.30;56.20;;;;;;1844581;77;21140;-69
2021/12/27 06:59:24;;;;;;;4.42;1.60;;;30.30;56.50;;;;;;1845658;77;21248;-72
2021/12/27 07:01:56;;;;;;;6.42;1.60;;;30.20;57.30;;;;;;1846676;77;21630;-70
2021/12/27 07:04:31;;;;;;;3.77;2.02;;;30.20;56.50;;;;;;1843938;77;21231;-70
2021/12/27 07:06:59;;;;;;;10.95;1.52;;;30.20;56.30;;;;;;1838414;77;21124;-69
2021/12/27 07:09:31;;;;;;;3.30;1.70;;;30.20;56.10;;;;;;1842421;77;21220;-70
2021/12/27 07:12:02;;;;;;;2.55;1.40;;;30.30;57.10;;;;;;1856396;77;21147;-70
2021/12/27 07:14:33;;;;;;;3.40;1.50;;;30.30;56.80;;;;;;1854108;76;21639;-80
2021/12/27 07:17:04;;;;;;;3.25;1.60;;;30.30;57.00;;;;;;1854614;76;21645;-79
2021/12/27 07:19:35;;;;;;;9.60;2.02;;;30.30;56.20;;;;;;1854229;77;21685;-80
2021/12/27 07:22:06;;;;;;;4.87;1.60;;;30.40;56.50;;;;;;1846170;77;21174;-80
2021/12/27 07:24:36;;;;;;;2.75;1.47;;;30.30;56.90;;;;;;1857150;76;21137;-80
2021/12/27 07:27:08;;;;;;;2.92;1.40;;;30.30;57.00;;;;;;1857497;77;21158;-80
2021/12/27 07:29:39;;;;;;;2.90;1.40;;;30.30;56.50;;;;;;1858785;76;21140;-80
2021/12/27 07:32:10;;;;;;;3.90;1.45;;;30.30;56.60;;;;;;1856608;77;21228;-80
2021/12/27 07:34:42;;;;;;;4.87;2.92;;;30.30;56.80;;;;;;1856639;77;21098;-80
2021/12/27 07:37:15;;;;;;;4.50;1.67;;;30.30;56.90;;;;;;1841109;77;21213;-81
2021/12/27 07:39:45;;;;;;;2.92;1.80;;;30.20;57.20;;;;;;1803244;77;21163;-81
2021/12/27 07:42:16;;;;;;;7.45;1.70;;;30.20;57.40;;;;;;1825825;78;21590;-79
2021/12/27 07:44:47;;;;;;;6.10;1.85;;;30.30;57.00;;;;;;1873454;75;21646;-80
2021/12/27 07:47:18;;;;;;;3.22;1.60;;;30.30;56.80;;;;;;1852733;76;21685;-78
2021/12/27 07:49:48;;;;;;;3.42;1.80;;;30.30;56.40;;;;;;1802953;77;21249;-79
2021/12/27 07:52:20;;;;;;;3.45;2.10;;;30.30;57.20;;;;;;1780330;79;21194;-79
2021/12/27 07:54:50;;;;;;;3.37;1.80;;;30.30;56.90;;;;;;1815260;78;21607;-79
2021/12/27 07:57:21;;;;;;;3.87;1.75;;;30.30;57.10;;;;;;1815819;79;21245;-78
2021/12/27 07:59:52;;;;;;;4.83;1.65;;;30.30;56.60;;;;;;1815459;79;21099;-79
2021/12/27 08:02:23;;;;;;;4.87;1.60;;;30.30;55.90;;;;;;1815036;79;21217;-78
2021/12/27 08:04:55;;;;;;;3.70;1.60;;;30.30;57.40;;;;;;1815510;78;21151;-78
2021/12/27 08:07:26;;;;;;;6.03;3.10;;;30.20;56.60;;;;;;1817364;79;21178;-78
2021/12/27 08:09:57;;;;;;;3.27;1.80;;;30.20;56.70;;;;;;1816947;78;21155;-79
2021/12/27 08:12:27;;;;;;;3.08;1.67;;;30.10;57.40;;;;;;1811094;79;21155;-79
2021/12/27 08:14:58;;;;;;;7.95;1.95;;;30.10;56.60;;;;;;1813272;79;21166;-78
2021/12/27 08:17:29;;;;;;;5.65;1.40;;;30.10;56.80;;;;;;1819617;78;21292;-78
2021/12/27 08:20:00;;;;;;;3.10;1.35;;;30.10;57.30;;;;;;1811741;78;21681;-77
2021/12/27 08:22:31;;;;;;;4.95;2.20;;;30.00;57.40;;;;;;1857983;77;21545;-80
2021/12/27 08:25:06;;;;;;;7.45;1.45;;;30.00;58.20;;;;;;1861200;77;21150;-78
2021/12/27 08:27:36;;;;;;;3.75;1.57;;;30.00;57.40;;;;;;1830556;77;21131;-76
2021/12/27 08:30:08;;;;;;;6.20;1.32;;;30.00;57.10;;;;;;1831350;77;21240;-77
2021/12/27 08:32:42;;;;;;;2.12;1.05;;;29.90;57.20;;;;;;1836559;77;21570;-78
2021/12/27 08:35:14;;;;;;;2.98;1.10;;;30.00;57.00;;;;;;1803282;77;21183;-78
2021/12/27 08:37:48;;;;;;;3.17;1.50;;;30.00;56.90;;;;;;1840207;76;21134;-76
2021/12/27 08:40:20;;;;;;;3.92;1.60;;;29.90;56.90;;;;;;1846933;78;21225;-78
2021/12/27 08:42:51;;;;;;;4.25;1.22;;;30.00;57.20;;;;;;1813018;79;21084;-77
2021/12/27 08:45:23;;;;;;;2.37;1.30;;;30.00;56.70;;;;;;1850173;76;21208;-80
2021/12/27 08:47:56;;;;;;;3.95;1.32;;;30.00;57.20;;;;;;1862183;77;21199;-79
2021/12/27 08:50:27;;;;;;;3.92;1.55;;;29.90;57.10;;;;;;1825620;77;21184;-78
2021/12/27 08:52:58;;;;;;;4.20;1.50;;;29.90;57.30;;;;;;1850156;76;21182;-80
2021/12/27 08:55:29;;;;;;;4.45;1.35;;;29.90;57.10;;;;;;1842488;78;21120;-79
2021/12/27 08:57:59;;;;;;;2.45;1.60;;;29.90;56.80;;;;;;1843191;78;21573;-79
2021/12/27 09:00:31;;;;;;;2.67;1.40;;;29.80;57.00;;;;;;1842747;78;21570;-79
2021/12/27 09:03:02;;;;;;;2.30;1.35;;;29.90;57.10;;;;;;1843194;78;21071;-78
2021/12/27 09:05:33;;;;;;;4.53;1.50;;;29.80;57.00;;;;;;1843146;78;21129;-79
2021/12/27 09:08:04;;;;;;;5.55;1.20;;;29.80;57.50;;;;;;1842424;78;21508;-78
2021/12/27 09:10:35;;;;;;;3.08;1.05;;;29.80;56.90;;;;;;1857082;76;21528;-80
2021/12/27 09:13:06;;;;;;;3.27;0.90;;;29.80;56.90;;;;;;1845867;76;21147;-79
2021/12/27 09:15:37;;;;;;;6.20;1.42;;;29.80;56.90;;;;;;1845597;77;21158;-78
2021/12/27 09:18:08;;;;;;;2.80;1.02;;;29.70;58.00;;;;;;1844910;77;21174;-79
2021/12/27 09:20:39;;;;;;;5.30;1.37;;;29.60;57.30;;;;;;1826359;78;21157;-79
2021/12/27 09:23:10;;;;;;;4.25;1.67;;;29.50;57.30;;;;;;1780034;79;21201;-80
2021/12/27 09:25:43;;;;;;;10.55;2.80;;;29.50;57.80;;;;;;1777259;79;21160;-78
2021/12/27 09:28:13;;;;;;;4.25;1.80;;;29.40;57.90;;;;;;1777316;79;21738;-79
2021/12/27 09:30:44;;;;;;;3.75;1.32;;;29.40;58.30;;;;;;1755705;80;21504;-79
2021/12/27 09:33:15;;;;;;;6.97;1.90;;;29.30;58.20;;;;;;1774943;80;21602;-78
2021/12/27 09:35:46;;;;;;;5.72;1.50;;;29.30;58.20;;;;;;1777412;79;21690;-79
2021/12/27 09:38:17;;;;;;;5.47;1.57;;;29.30;58.10;;;;;;1777343;80;21136;-79
2021/12/27 09:40:48;;;;;;;3.35;1.27;;;29.30;58.20;;;;;;1779507;79;21163;-79
2021/12/27 09:43:19;;;;;;;5.00;1.52;;;29.30;58.40;;;;;;1777230;80;21179;-79
2021/12/27 09:45:50;;;;;;;4.33;1.37;;;29.30;58.30;;;;;;1788550;79;21470;-79
2021/12/27 09:48:21;;;;;;;8.23;2.70;;;29.30;58.30;;;;;;1807699;78;21628;-79
2021/12/27 09:50:54;;;;;;;6.17;3.05;;;29.20;58.00;;;;;;1784109;80;21167;-79
2021/12/27 09:53:27;;;;;;;7.10;3.20;;;29.20;58.40;;;;;;1807869;78;21185;-77
2021/12/27 09:56:04;;;;;;;6.30;2.15;;;29.10;58.50;;;;;;1778075;79;21237;-77
2021/12/27 09:58:32;;;;;;;4.08;2.20;;;29.10;58.60;;;;;;1806537;78;21174;-77
2021/12/27 10:01:05;;;;;;;4.03;1.70;;;29.00;58.60;;;;;;1824532;78;21129;-76
2021/12/27 10:03:39;;;;;;;5.65;1.90;;;29.00;58.50;;;;;;1805586;78;21161;-75
2021/12/27 10:06:13;;;;;;;3.90;2.30;;;28.90;58.80;;;;;;1816220;78;21127;-78
2021/12/27 10:08:46;;;;;;;4.62;2.83;;;28.90;59.00;;;;;;1849745;76;21255;-77
2021/12/27 10:11:19;;;;;;;6.75;2.83;;;28.90;59.20;;;;;;1846300;76;21248;-78
2021/12/27 10:13:52;;;;;;;4.80;2.70;;;28.90;59.50;;;;;;1843025;77;21143;-79
2021/12/27 10:16:23;;;;;;;3.50;2.15;;;28.80;59.40;;;;;;1842694;78;21151;-80
2021/12/27 10:18:56;;;;;;;4.85;2.50;;;28.80;59.50;;;;;;1848421;76;21642;-79
2021/12/27 10:21:29;;;;;;;4.78;2.10;;;28.80;59.70;;;;;;1819412;77;21228;-78
2021/12/27 10:24:02;;;;;;;5.40;2.50;;;28.80;59.70;;;;;;1846571;76;21192;-80
2021/12/27 10:26:33;;;;;;;6.37;2.87;;;28.70;59.40;;;;;;1851103;76;21668;-79
2021/12/27 10:29:07;;;;;;;4.87;2.30;;;28.70;59.50;;;;;;1848350;76;21136;-79
2021/12/27 10:31:40;;;;;;;8.00;3.10;;;28.70;59.70;;;;;;1860676;76;21147;-80
2021/12/27 10:34:11;;;;;;;4.08;2.50;;;28.60;59.70;;;;;;1848598;76;21155;-81
2021/12/27 10:36:44;;;;;;;6.85;3.70;;;28.50;59.90;;;;;;1855317;77;21221;-81
2021/12/27 10:39:16;;;;;;;6.65;2.95;;;28.50;59.80;;;;;;1840558;76;21212;-79
2021/12/27 10:41:47;;;;;;;8.50;2.98;;;28.50;59.90;;;;;;1862608;76;22292;-79
2021/12/27 10:44:19;;;;;;;11.15;2.90;;;28.40;60.00;;;;;;1847318;78;21178;-79
2021/12/27 10:46:51;;;;;;;8.78;3.27;;;28.40;60.30;;;;;;1816017;78;21249;-80
2021/12/27 10:49:22;;;;;;;8.05;3.35;;;28.30;60.40;;;;;;1857100;76;21093;-79
2021/12/27 10:51:55;;;;;;;6.47;3.25;;;28.30;60.60;;;;;;1846640;78;21129;-80
2021/12/27 10:54:26;;;;;;;8.35;4.40;;;28.30;60.70;;;;;;1853277;76;21542;-80
2021/12/27 10:57:02;;;;;;;5.47;3.70;;;28.30;60.90;;;;;;1855144;76;21175;-80
2021/12/27 10:59:30;;;;;;;9.28;4.12;;;28.20;60.90;;;;;;1884619;76;21166;-80
2021/12/27 11:02:03;;;;;;;9.93;5.08;;;28.20;61.10;;;;;;1851783;76;21177;-81
2021/12/27 11:04:34;;;;;;;10.03;5.78;;;28.10;61.10;;;;;;1870143;76;21139;-79
2021/12/27 11:07:06;;;;;;;8.20;4.80;;;28.10;61.20;;;;;;1845606;76;21142;-79
2021/12/27 11:09:37;;;;;;;12.15;5.10;;;28.10;61.30;;;;;;1864097;76;21815;-80
2021/12/27 11:12:08;;;;;;;10.05;5.35;;;28.10;62.50;;;;;;1837620;76;21143;-79
2021/12/27 11:14:41;;;;;;;24.57;12.60;;;28.00;61.50;;;;;;1841687;76;21571;-80
2021/12/27 11:17:11;;;;;;;17.17;8.25;;;28.00;61.70;;;;;;1842901;76;21138;-80
2021/12/27 11:19:43;;;;;;;12.75;6.25;;;28.00;61.90;;;;;;1849881;76;21655;-81
2021/12/27 11:22:14;;;;;;;12.53;5.95;;;27.90;62.00;;;;;;1848012;76;21674;-81
2021/12/27 11:24:44;;;;;;;14.28;6.00;;;27.90;62.20;;;;;;1854402;76;21225;-81
2021/12/27 11:27:16;;;;;;;10.53;6.10;;;27.90;62.30;;;;;;1867544;76;21265;-81
2021/12/27 11:29:49;;;;;;;8.45;5.72;;;27.90;62.50;;;;;;1842302;78;21151;-82
2021/12/27 11:32:21;;;;;;;11.75;5.60;;;27.80;62.50;;;;;;1870031;76;21626;-81
2021/12/27 11:34:55;;;;;;;11.83;5.10;;;27.80;62.40;;;;;;1847068;76;21096;-80
2021/12/27 11:37:29;;;;;;;14.00;5.90;;;27.80;62.60;;;;;;1816958;78;21101;-81
2021/12/27 11:40:02;;;;;;;13.58;5.72;;;27.70;62.60;;;;;;1856489;76;21104;-80
2021/12/27 11:42:36;;;;;;;10.60;6.03;;;27.70;62.70;;;;;;1836295;78;21186;-81
2021/12/27 11:45:07;;;;;;;10.55;5.53;;;27.70;62.70;;;;;;1849509;76;21141;-81
2021/12/27 11:47:38;;;;;;;12.07;5.47;;;27.60;62.90;;;;;;1858410;76;21116;-81
2021/12/27 11:50:14;;;;;;;9.13;5.00;;;27.60;62.90;;;;;;1858135;76;21229;-81
2021/12/27 11:52:47;;;;;;;7.78;4.53;;;27.50;62.80;;;;;;1860114;76;21118;-81
2021/12/27 11:55:21;;;;;;;15.15;4.87;;;27.50;63.00;;;;;;1863222;75;21151;-81
2021/12/27 11:57:54;;;;;;;7.75;3.92;;;27.40;62.90;;;;;;1837856;76;21165;-81
2021/12/27 12:00:18;;;;;;;9.33;4.10;;;27.40;62.90;;;;;;1837063;76;21135;-80
2021/12/27 12:02:52;;;;;;;9.23;3.92;;;27.40;63.10;;;;;;1843546;77;21200;-81
2021/12/27 12:05:25;;;;;;;10.68;3.80;;;27.40;63.00;;;;;;1813562;78;21151;-81
2021/12/27 12:07:56;;;;;;;10.48;4.08;;;27.30;63.10;;;;;;1841604;76;21615;-81
2021/12/27 12:10:28;;;;;;;10.13;4.05;;;27.30;63.00;;;;;;1798058;78;21115;-80
2021/12/27 12:13:01;;;;;;;9.05;4.10;;;27.20;63.10;;;;;;1835923;77;21170;-81
2021/12/27 12:15:33;;;;;;;17.42;4.97;;;27.20;63.10;;;;;;1843177;76;21218;-80
2021/12/27 12:18:06;;;;;;;8.60;4.42;;;27.20;63.20;;;;;;1846433;78;21125;-81
2021/12/27 12:20:39;;;;;;;13.25;5.17;;;27.10;63.30;;;;;;1834802;77;21157;-81
2021/12/27 12:23:11;;;;;;;10.93;5.15;;;27.10;63.40;;;;;;1783439;80;21221;-81
2021/12/27 12:25:41;;;;;;;17.65;4.85;;;27.00;63.60;;;;;;1777085;80;21178;-81
2021/12/27 12:28:17;;;;;;;11.83;4.47;;;27.00;63.80;;;;;;1796478;80;21248;-81
2021/12/27 12:30:49;;;;;;;9.63;4.53;;;27.00;64.00;;;;;;1815204;78;21662;-81
2021/12/27 12:33:22;;;;;;;9.78;4.80;;;26.90;64.10;;;;;;1818040;78;21647;-81
2021/12/27 12:35:57;;;;;;;8.58;4.70;;;26.90;64.20;;;;;;1785150;79;21437;-80
2021/12/27 12:38:30;;;;;;;8.90;4.25;;;26.90;64.40;;;;;;1779873;80;21140;-79
2021/12/27 12:41:01;;;;;;;11.48;4.10;;;26.80;64.40;;;;;;1780280;80;21548;-79
2021/12/27 12:43:33;;;;;;;10.98;3.90;;;26.80;64.10;;;;;;1762262;80;21712;-86
2021/12/27 12:46:06;;;;;;;10.13;4.75;;;26.70;64.10;;;;;;1808827;77;21191;-80
2021/12/27 12:48:37;;;;;;;11.15;3.55;;;26.70;64.10;;;;;;1783044;80;21108;-79
2021/12/27 12:51:08;;;;;;;6.53;3.85;;;26.70;64.00;;;;;;1786343;79;21658;-79
2021/12/27 12:53:39;;;;;;;6.33;3.30;;;26.70;63.90;;;;;;1836208;77;21067;-79
2021/12/27 12:56:10;;;;;;;6.35;3.22;;;26.60;63.80;;;;;;1861765;77;21158;-79
2021/12/27 12:58:42;;;;;;;6.15;3.00;;;26.60;63.80;;;;;;1831702;77;21131;-79
2021/12/27 13:01:12;;;;;;;6.00;3.08;;;26.60;64.00;;;;;;1847018;78;21060;-80
2021/12/27 13:03:45;;;;;;;7.15;3.25;;;26.60;63.90;;;;;;1833457;77;21120;-81
2021/12/27 13:06:16;;;;;;;6.00;3.10;;;26.50;64.00;;;;;;1801626;79;21117;-80
2021/12/27 13:08:49;;;;;;;7.90;3.25;;;26.40;64.10;;;;;;1779103;80;22490;-82
2021/12/27 13:11:21;;;;;;;7.40;3.10;;;26.40;64.20;;;;;;1801632;75;21092;-80
2021/12/27 13:13:54;;;;;;;12.65;2.85;;;26.40;64.30;;;;;;1839979;77;21066;-81
2021/12/27 13:16:29;;;;;;;8.03;3.05;;;26.40;64.50;;;;;;1827810;76;21159;-80